Fort Smith Regional Airport

Airport
ICAO code: 
KFSM
Summary
ICAO Region: 
NAM
Territory: 
Location: 
Fort Smith, Arkansas,
Elevation: 
469 ft
Coordinates: 
Aerial View: 
35° 20' 7.056" N, 94° 22' 3.598" W
Metar
Observation
KFSM 040653Z AUTO 00000KT 3SM BR CLR 13/12 A3003 RMK AO2 SLP167 T01280117
Station
Fort Smith, Fort Smith Regional Airport
Date/Time
2021-12-04 06:53:00
Wind direction
Wind speed
00 kts
Lowest cloud amount
n/a
Temperature
12.8°C
Dew point
11.7°C
Humidity
93%
Weather condition
mist

Description

Joint use (civil/ANG) regional airport serving Fort Smith, Arkansas, located 3 nm southeast of the city's business district.

Climatology

Humid “subtropical” climate (Köppen climate classification Cfa) - characterized by hot, humid summers and cool winters. Significant amounts of precipitation occur in all seasons in most areas. Winter rainfall (and sometimes snowfall) is associated with large storms that the westerlies steer from west to east. Most summer rainfall occurs during thunderstorms and occasional tropical storms (hurricanes).

Runways

Designator Length Width Surface Rops
1/19 1525 46 ASP Yes/Yes
7/25 2438 46 ASP Yes/Yes
Airport map: 
Aerial View: 

SKYbrary Partners:

Safety knowledge contributed by: